createdAt,value
2023-04-16T00:02:02.555Z,5.28
2023-04-16T00:07:04.155Z,5.40
2023-04-16T00:12:06.591Z,5.40
2023-04-16T00:17:08.040Z,5.63
2023-04-16T00:22:09.575Z,5.13
2023-04-16T00:27:11.168Z,5.07
2023-04-16T00:32:12.553Z,5.60
2023-04-16T00:37:14.293Z,4.57
2023-04-16T00:42:15.648Z,5.38
2023-04-16T00:47:17.202Z,5.00
2023-04-16T00:52:18.514Z,4.70
2023-04-16T00:57:21.029Z,4.82
2023-04-16T01:02:22.876Z,5.30
2023-04-16T01:07:24.388Z,5.60
2023-04-16T01:12:25.829Z,6.00
2023-04-16T01:17:27.196Z,5.60
2023-04-16T01:22:29.204Z,5.72
2023-04-16T01:27:31.177Z,5.47
2023-04-16T01:32:32.640Z,5.72
2023-04-16T01:37:34.032Z,5.70
2023-04-16T01:42:36.017Z,5.53
2023-04-16T01:47:37.573Z,5.38
2023-04-16T01:52:38.911Z,5.38
2023-04-16T01:57:40.426Z,6.38
2023-04-16T02:02:42.590Z,5.88
2023-04-16T02:07:44.017Z,5.60
2023-04-16T02:12:45.412Z,5.68
2023-04-16T02:17:48.529Z,6.35
2023-04-16T02:22:50.010Z,5.88
2023-04-16T02:27:51.412Z,6.13
2023-04-16T02:32:52.864Z,6.18
2023-04-16T02:37:54.206Z,6.55
2023-04-16T02:42:55.745Z,6.05
2023-04-16T02:47:57.183Z,5.78
2023-04-16T02:52:58.591Z,6.40
2023-04-16T02:57:59.950Z,6.68
2023-04-16T03:03:01.675Z,6.18
2023-04-16T03:08:06.873Z,6.20
2023-04-16T03:13:08.144Z,6.60
2023-04-16T03:18:09.460Z,6.38
2023-04-16T03:23:10.748Z,7.70
2023-04-16T03:28:12.089Z,7.25
2023-04-16T03:33:13.457Z,7.38
2023-04-16T03:38:14.790Z,6.70
2023-04-16T03:43:16.114Z,7.40
2023-04-16T03:48:17.814Z,6.78
2023-04-16T03:53:19.649Z,7.32
2023-04-16T03:58:21.470Z,7.68
2023-04-16T04:03:23.057Z,7.25
2023-04-16T04:08:24.626Z,7.38
2023-04-16T04:13:25.916Z,7.60
2023-04-16T04:18:27.696Z,7.97
2023-04-16T04:23:28.977Z,7.78
2023-04-16T04:28:30.644Z,6.80
2023-04-16T04:33:32.249Z,7.18
2023-04-16T04:38:33.594Z,6.55
2023-04-16T04:43:35.038Z,6.88
2023-04-16T04:48:36.390Z,6.40
2023-04-16T04:53:37.923Z,5.85
2023-04-16T04:58:39.225Z,6.30
2023-04-16T05:03:40.754Z,5.47
2023-04-16T05:08:42.160Z,5.47
2023-04-16T05:13:43.512Z,5.78
2023-04-16T05:18:44.808Z,5.10
2023-04-16T05:23:46.089Z,5.60
2023-04-16T05:28:47.392Z,5.43
2023-04-16T05:33:48.794Z,6.05
2023-04-16T05:38:50.107Z,5.38
2023-04-16T05:43:51.451Z,5.80
2023-04-16T05:48:52.767Z,5.78
2023-04-16T05:53:54.088Z,5.15
2023-04-16T05:58:55.438Z,6.80
2023-04-16T06:03:57.025Z,6.07
2023-04-16T06:08:58.476Z,6.22
2023-04-16T06:13:59.792Z,6.40
2023-04-16T06:19:01.274Z,6.38
2023-04-16T06:24:02.642Z,6.35
2023-04-16T06:29:04.061Z,6.57
2023-04-16T06:34:05.660Z,5.80
2023-04-16T06:39:07.042Z,5.18
2023-04-16T06:44:08.476Z,5.50
2023-04-16T06:49:09.987Z,5.45
2023-04-16T06:54:11.503Z,5.53
2023-04-16T06:59:12.846Z,5.60
2023-04-16T07:04:14.559Z,4.80
2023-04-16T07:09:17.815Z,5.38
2023-04-16T07:14:19.176Z,6.07
2023-04-16T07:19:21.383Z,6.43
2023-04-16T07:24:22.716Z,6.20
2023-04-16T07:29:24.095Z,5.72
2023-04-16T07:34:25.468Z,6.90
2023-04-16T07:39:26.778Z,6.97
2023-04-16T07:44:28.147Z,7.10
2023-04-16T07:49:29.551Z,6.63
2023-04-16T07:54:31.055Z,7.13
2023-04-16T07:59:32.434Z,7.63
2023-04-16T08:04:33.943Z,7.10
2023-04-16T08:09:36.077Z,7.13
2023-04-16T08:14:37.425Z,7.65
2023-04-16T08:19:38.734Z,7.72
2023-04-16T08:24:40.314Z,7.75
2023-04-16T08:29:41.592Z,6.95
2023-04-16T08:34:43.040Z,7.85
2023-04-16T08:39:44.312Z,8.38
2023-04-16T08:44:49.479Z,8.25
2023-04-16T08:49:56.307Z,7.03
2023-04-16T08:55:06.937Z,7.85
2023-04-16T09:00:10.262Z,8.13
2023-04-16T09:05:17.119Z,6.93
2023-04-16T09:10:19.837Z,7.70
2023-04-16T09:15:22.052Z,7.63
2023-04-16T09:20:23.440Z,8.05
2023-04-16T09:25:25.151Z,7.28
2023-04-16T09:30:27.713Z,8.25
2023-04-16T09:35:45.266Z,8.43
2023-04-16T09:40:49.538Z,7.82
2023-04-16T09:45:55.342Z,8.00
2023-04-16T09:50:57.496Z,8.52
2023-04-16T09:56:01.158Z,7.43
2023-04-16T10:01:05.093Z,7.90
2023-04-16T10:06:19.525Z,7.28
2023-04-16T10:11:21.619Z,7.70
2023-04-16T10:16:23.768Z,7.25
2023-04-16T10:21:26.366Z,6.75
2023-04-16T10:26:29.993Z,7.95
2023-04-16T10:31:31.637Z,6.93
2023-04-16T10:36:37.075Z,7.70
2023-04-16T10:41:38.784Z,6.97
2023-04-16T10:46:42.548Z,7.95
2023-04-16T10:51:53.209Z,8.40
2023-04-16T10:56:58.633Z,8.20
2023-04-16T11:02:02.022Z,7.93
2023-04-16T11:07:16.967Z,8.35
2023-04-16T11:12:27.586Z,7.88
2023-04-16T11:17:32.675Z,7.18
2023-04-16T11:22:36.639Z,8.02
2023-04-16T11:27:38.225Z,7.90
2023-04-16T11:32:40.114Z,8.80
2023-04-16T11:37:41.964Z,7.82
2023-04-16T11:42:44.203Z,8.77
2023-04-16T11:47:51.779Z,8.63
2023-04-16T11:52:55.550Z,8.40
2023-04-16T11:57:57.484Z,8.50
2023-04-16T12:02:59.425Z,8.50
2023-04-16T12:08:03.226Z,8.57
2023-04-16T12:13:11.944Z,9.73
2023-04-16T12:18:14.146Z,9.18
2023-04-16T12:23:30.272Z,9.95
2023-04-16T12:28:38.181Z,10.40
2023-04-16T12:33:39.535Z,10.75
2023-04-16T12:38:40.856Z,11.65
2023-04-16T12:43:42.246Z,12.52
2023-04-16T12:48:43.982Z,12.38
2023-04-16T12:53:45.290Z,13.13
2023-04-16T12:58:46.729Z,13.73
2023-04-16T13:03:48.481Z,13.02
2023-04-16T13:08:49.946Z,14.73
2023-04-16T13:13:51.388Z,13.68
2023-04-16T13:18:53.270Z,14.50
2023-04-16T13:23:54.863Z,14.30
2023-04-16T13:28:56.267Z,14.57
2023-04-16T13:33:57.876Z,15.02
2023-04-16T13:39:00.430Z,14.68
2023-04-16T13:44:01.908Z,14.27
2023-04-16T13:49:03.899Z,13.60
2023-04-16T13:54:05.432Z,14.85
2023-04-16T13:59:07.093Z,14.38
2023-04-16T14:04:08.589Z,12.60
2023-04-16T14:09:10.894Z,12.50
2023-04-16T14:14:12.733Z,12.85
2023-04-16T14:19:14.068Z,14.30
2023-04-16T14:24:15.451Z,12.93
2023-04-16T14:29:16.948Z,12.15
2023-04-16T14:34:18.306Z,11.45
2023-04-16T14:39:21.955Z,12.00
2023-04-16T14:44:23.580Z,12.70
2023-04-16T14:49:25.172Z,11.35
2023-04-16T14:54:26.659Z,10.80
2023-04-16T14:59:28.221Z,9.48
2023-04-16T15:04:29.832Z,9.23
2023-04-16T15:09:32.184Z,9.43
2023-04-16T15:14:33.517Z,7.20
2023-04-16T15:19:34.970Z,8.02
2023-04-16T15:24:36.414Z,7.85
2023-04-16T15:29:37.733Z,7.20
2023-04-16T15:34:39.097Z,6.93
2023-04-16T15:39:40.690Z,6.80
2023-04-16T15:44:42.097Z,6.18
2023-04-16T15:49:43.516Z,6.72
2023-04-16T15:54:44.835Z,6.47
2023-04-16T16:00:03.164Z,6.53
2023-04-16T16:05:13.245Z,6.63
2023-04-16T16:10:14.603Z,6.68
2023-04-16T16:15:16.224Z,6.85
2023-04-16T16:20:17.981Z,6.38
2023-04-16T16:25:20.172Z,5.90
2023-04-16T16:30:21.586Z,7.63
2023-04-16T16:35:23.374Z,7.13
2023-04-16T16:40:25.152Z,6.47
2023-04-16T16:45:27.072Z,7.97
2023-04-16T16:50:28.629Z,7.80
2023-04-16T16:55:29.953Z,8.40
2023-04-16T17:00:31.780Z,9.15
2023-04-16T17:05:33.139Z,9.48
2023-04-16T17:10:35.795Z,9.40
2023-04-16T17:15:37.186Z,9.80
2023-04-16T17:20:38.580Z,9.30
2023-04-16T17:25:40.244Z,9.32
2023-04-16T17:30:42.169Z,9.05
2023-04-16T17:35:43.684Z,9.85
2023-04-16T17:40:45.255Z,10.70
2023-04-16T17:45:46.662Z,9.93
2023-04-16T17:50:48.548Z,11.00
2023-04-16T17:55:51.598Z,10.35
2023-04-16T18:00:53.121Z,11.32
2023-04-16T18:05:54.496Z,10.32
2023-04-16T18:10:56.755Z,10.98
2023-04-16T18:15:58.230Z,11.10
2023-04-16T18:20:59.607Z,10.88
2023-04-16T18:26:01.201Z,11.63
2023-04-16T18:31:05.509Z,11.50
2023-04-16T18:36:07.264Z,11.23
2023-04-16T18:41:22.342Z,12.18
2023-04-16T18:46:24.128Z,11.40
2023-04-16T18:51:26.997Z,11.43
2023-04-16T18:56:29.742Z,11.85
2023-04-16T19:01:31.355Z,12.20
2023-04-16T19:06:33.015Z,12.13
2023-04-16T19:11:34.301Z,12.45
2023-04-16T19:16:35.766Z,12.30
2023-04-16T19:21:37.193Z,13.27
2023-04-16T19:26:38.546Z,13.50
2023-04-16T19:31:40.011Z,13.25
2023-04-16T19:36:42.247Z,14.15
2023-04-16T19:41:43.682Z,14.25
2023-04-16T19:46:45.429Z,14.20
2023-04-16T19:51:46.800Z,14.45
2023-04-16T19:56:51.483Z,13.90
2023-04-16T20:01:52.929Z,15.18
2023-04-16T20:06:54.432Z,13.70
2023-04-16T20:11:56.800Z,14.40
2023-04-16T20:16:58.144Z,15.27
2023-04-16T20:21:59.611Z,15.63
2023-04-16T20:27:01.688Z,14.60
2023-04-16T20:32:03.139Z,15.07
2023-04-16T20:37:04.949Z,15.25
2023-04-16T20:42:10.048Z,16.20
2023-04-16T20:47:13.041Z,15.00
2023-04-16T20:52:14.715Z,13.77
2023-04-16T20:57:16.264Z,14.57
2023-04-16T21:02:18.748Z,12.55
2023-04-16T21:07:20.452Z,13.15
2023-04-16T21:12:21.899Z,11.73
2023-04-16T21:17:23.278Z,12.10
2023-04-16T21:22:25.271Z,11.75
2023-04-16T21:27:27.123Z,11.88
2023-04-16T21:32:28.582Z,10.88
2023-04-16T21:37:30.036Z,10.68
2023-04-16T21:42:39.800Z,11.50
2023-04-16T21:47:41.236Z,11.30
2023-04-16T21:52:46.212Z,11.15
2023-04-16T21:57:48.000Z,11.85
2023-04-16T22:02:49.520Z,10.75
2023-04-16T22:07:52.354Z,11.18
2023-04-16T22:12:54.917Z,10.40
2023-04-16T22:17:56.349Z,12.07
2023-04-16T22:22:58.581Z,13.27
2023-04-16T22:28:01.306Z,11.05
2023-04-16T22:33:03.796Z,13.93
2023-04-16T22:38:05.412Z,12.73
2023-04-16T22:43:06.739Z,13.50
2023-04-16T22:48:08.500Z,12.90
2023-04-16T22:53:09.853Z,13.38
2023-04-16T22:58:11.270Z,12.70
2023-04-16T23:03:12.651Z,12.90
2023-04-16T23:08:14.031Z,13.05
2023-04-16T23:13:15.743Z,13.82
2023-04-16T23:18:17.141Z,12.98
2023-04-16T23:23:18.607Z,13.60
2023-04-16T23:28:20.586Z,12.57
2023-04-16T23:33:22.073Z,13.73
2023-04-16T23:38:23.576Z,14.73
2023-04-16T23:43:25.006Z,13.75
2023-04-16T23:48:26.753Z,13.23
2023-04-16T23:53:28.188Z,15.10
2023-04-16T23:58:29.538Z,14.30
